createdAt,value
2018-09-05T00:00:24.708Z,22.83
2018-09-05T00:00:50.847Z,23.02
2018-09-05T00:01:16.982Z,22.93
2018-09-05T00:01:43.121Z,22.94
2018-09-05T00:02:09.259Z,22.99
2018-09-05T00:02:35.381Z,22.94
2018-09-05T00:03:01.521Z,23
2018-09-05T00:03:27.651Z,23.03
2018-09-05T00:03:53.786Z,23.02
2018-09-05T00:04:19.924Z,22.96
2018-09-05T00:04:46.063Z,22.98
2018-09-05T00:05:12.197Z,22.96
2018-09-05T00:05:38.335Z,23.02
2018-09-05T00:06:04.469Z,22.96
2018-09-05T00:06:30.636Z,23.05
2018-09-05T00:06:56.774Z,22.98
2018-09-05T00:07:22.903Z,23.08
2018-09-05T00:07:49.041Z,23.1
2018-09-05T00:08:15.354Z,23.06
2018-09-05T00:08:41.606Z,23.17
2018-09-05T00:09:07.960Z,23.03
2018-09-05T00:09:34.097Z,23.02
2018-09-05T00:10:00.346Z,23.03
2018-09-05T00:10:26.479Z,22.96
2018-09-05T00:10:52.619Z,23.05
2018-09-05T00:11:18.751Z,23.1
2018-09-05T00:11:44.895Z,23.03
2018-09-05T00:12:11.552Z,23.08
2018-09-05T00:12:37.726Z,23.06
2018-09-05T00:13:03.857Z,23.15
2018-09-05T00:13:29.997Z,23.09
2018-09-05T00:13:56.129Z,23.1
2018-09-05T00:14:22.369Z,23.02
2018-09-05T00:14:48.763Z,23.05
2018-09-05T00:15:14.893Z,23.05
2018-09-05T00:15:41.051Z,23.06
2018-09-05T00:16:07.223Z,23.08
2018-09-05T00:16:33.697Z,23.03
2018-09-05T00:16:59.795Z,23.03
2018-09-05T00:17:25.930Z,22.99
2018-09-05T00:17:52.065Z,23.05
2018-09-05T00:18:18.200Z,23.05
2018-09-05T00:18:44.610Z,23.1
2018-09-05T00:19:10.687Z,23
2018-09-05T00:19:36.842Z,23.17
2018-09-05T00:20:02.979Z,22.9
2018-09-05T00:20:29.320Z,23.06
2018-09-05T00:20:55.498Z,22.94
2018-09-05T00:21:21.675Z,22.84
2018-09-05T00:21:47.809Z,22.94
2018-09-05T00:22:13.948Z,22.93
2018-09-05T00:22:40.077Z,22.9
2018-09-05T00:23:06.213Z,22.93
2018-09-05T00:23:32.803Z,22.9
2018-09-05T00:23:58.947Z,22.85
2018-09-05T00:24:25.105Z,22.94
2018-09-05T00:24:52.805Z,22.83
2018-09-05T00:25:18.960Z,22.81
2018-09-05T00:25:45.099Z,22.72
2018-09-05T00:26:11.223Z,22.83
2018-09-05T00:26:37.357Z,22.76
2018-09-05T00:27:03.515Z,22.84
2018-09-05T00:27:29.846Z,22.85
2018-09-05T00:27:56.077Z,22.88
2018-09-05T00:28:22.216Z,22.76
2018-09-05T00:28:48.346Z,22.83
2018-09-05T00:29:14.489Z,22.78
2018-09-05T00:29:40.750Z,22.66
2018-09-05T00:30:06.959Z,22.69
2018-09-05T00:30:33.149Z,22.69
2018-09-05T00:30:59.306Z,22.66
2018-09-05T00:31:25.457Z,22.66
2018-09-05T00:31:51.609Z,22.62
2018-09-05T00:32:17.750Z,22.72
2018-09-05T00:32:43.914Z,22.72
2018-09-05T00:33:10.343Z,22.66
2018-09-05T00:33:36.477Z,22.66
2018-09-05T00:34:02.612Z,22.62
2018-09-05T00:34:28.750Z,22.63
2018-09-05T00:34:54.911Z,22.62
2018-09-05T00:35:21.741Z,22.55
2018-09-05T00:35:47.838Z,22.55
2018-09-05T00:36:13.974Z,22.53
2018-09-05T00:36:40.128Z,22.53
2018-09-05T00:37:06.266Z,22.57
2018-09-05T00:37:32.401Z,22.53
2018-09-05T00:37:58.588Z,22.5
2018-09-05T00:38:24.795Z,22.53
2018-09-05T00:38:50.925Z,22.55
2018-09-05T00:39:17.065Z,22.57
2018-09-05T00:39:43.203Z,22.57
2018-09-05T00:40:09.337Z,22.54
2018-09-05T00:40:35.636Z,22.54
2018-09-05T00:41:02.001Z,22.47
2018-09-05T00:41:28.067Z,22.55
2018-09-05T00:41:54.218Z,22.5
2018-09-05T00:42:20.347Z,22.51
2018-09-05T00:42:46.516Z,22.48
2018-09-05T00:43:12.718Z,22.59
2018-09-05T00:43:39.038Z,22.45
2018-09-05T00:44:05.214Z,22.45
2018-09-05T00:44:31.346Z,22.48
2018-09-05T00:44:57.512Z,22.45
2018-09-05T00:45:23.671Z,22.43
2018-09-05T00:45:50.090Z,22.45
2018-09-05T00:46:16.583Z,22.39
2018-09-05T00:46:42.721Z,22.51
2018-09-05T00:47:08.854Z,22.48
2018-09-05T00:47:34.996Z,22.43
2018-09-05T00:48:01.130Z,22.45
2018-09-05T00:48:27.469Z,22.38
2018-09-05T00:48:53.944Z,22.35
2018-09-05T00:49:20.089Z,22.45
2018-09-05T00:49:46.223Z,22.38
2018-09-05T00:50:12.383Z,22.45
2018-09-05T00:50:38.540Z,22.45
2018-09-05T00:51:05.166Z,22.47
2018-09-05T00:51:31.270Z,22.39
2018-09-05T00:51:57.418Z,22.43
2018-09-05T00:52:23.560Z,22.36
2018-09-05T00:52:49.693Z,22.36
2018-09-05T00:53:15.875Z,22.35
2018-09-05T00:53:42.074Z,22.43
2018-09-05T00:54:08.378Z,22.44
2018-09-05T00:54:34.518Z,22.38
2018-09-05T00:55:00.652Z,22.39
2018-09-05T00:55:26.791Z,22.43
2018-09-05T00:55:52.923Z,22.36
2018-09-05T00:56:19.115Z,22.43
2018-09-05T00:56:45.458Z,22.36
2018-09-05T00:57:11.616Z,22.43
2018-09-05T00:57:37.748Z,22.43
2018-09-05T00:58:03.898Z,22.45
2018-09-05T00:58:30.034Z,22.41
2018-09-05T00:58:56.324Z,22.48
2018-09-05T00:59:22.545Z,22.53
2018-09-05T00:59:48.685Z,22.51
2018-09-05T01:00:14.815Z,22.41
2018-09-05T01:00:40.949Z,22.44
2018-09-05T01:01:07.083Z,22.43
2018-09-05T01:01:33.254Z,22.36
2018-09-05T01:01:59.548Z,22.39
2018-09-05T01:02:25.730Z,22.41
2018-09-05T01:02:51.865Z,22.38
2018-09-05T01:03:17.993Z,22.41
2018-09-05T01:03:44.120Z,22.47
2018-09-05T01:04:10.264Z,22.41
2018-09-05T01:04:36.424Z,22.38
2018-09-05T01:05:02.560Z,22.38
2018-09-05T01:05:28.716Z,22.47
2018-09-05T01:05:54.876Z,22.48
2018-09-05T01:06:21.005Z,22.38
2018-09-05T01:06:47.146Z,22.44
2018-09-05T01:07:13.301Z,22.43
2018-09-05T01:07:39.435Z,22.45
2018-09-05T01:08:05.574Z,22.44
2018-09-05T01:08:31.712Z,22.47
2018-09-05T01:08:57.841Z,22.48
2018-09-05T01:09:23.977Z,22.36
2018-09-05T01:09:50.114Z,22.41
2018-09-05T01:10:16.271Z,22.43
2018-09-05T01:10:42.432Z,22.38
2018-09-05T01:11:08.571Z,22.3
2018-09-05T01:11:34.721Z,22.33
2018-09-05T01:12:00.857Z,22.3
2018-09-05T01:12:26.995Z,22.3
2018-09-05T01:12:53.129Z,22.3
2018-09-05T01:13:19.267Z,22.2
2018-09-05T01:13:45.405Z,22.14
2018-09-05T01:14:11.542Z,22.14
2018-09-05T01:14:37.702Z,22.17
2018-09-05T01:15:03.837Z,22.15
2018-09-05T01:15:29.994Z,22.18
2018-09-05T01:15:56.128Z,22.13
2018-09-05T01:16:22.270Z,22.11
2018-09-05T01:16:48.402Z,22.14
2018-09-05T01:17:14.532Z,22.02
2018-09-05T01:17:40.672Z,22.1
2018-09-05T01:18:06.804Z,22.1
2018-09-05T01:18:32.935Z,21.98
2018-09-05T01:18:59.070Z,21.98
2018-09-05T01:19:25.206Z,22.02
2018-09-05T01:19:51.342Z,22.02
2018-09-05T01:20:17.492Z,22.04
2018-09-05T01:20:43.631Z,22.04
2018-09-05T01:21:09.766Z,22.06
2018-09-05T01:21:35.956Z,22.02
2018-09-05T01:22:02.109Z,21.99
2018-09-05T01:22:28.250Z,22.06
2018-09-05T01:22:54.382Z,22.02
2018-09-05T01:23:20.522Z,21.96
2018-09-05T01:23:46.657Z,22.04
2018-09-05T01:24:12.820Z,22.04
2018-09-05T01:24:38.967Z,22.02
2018-09-05T01:25:05.098Z,22.06
2018-09-05T01:25:31.264Z,21.99
2018-09-05T01:25:57.395Z,21.98
2018-09-05T01:26:23.530Z,22
2018-09-05T01:26:49.658Z,21.98
2018-09-05T01:27:15.826Z,22
2018-09-05T01:27:41.957Z,22.06
2018-09-05T01:28:08.089Z,21.92
2018-09-05T01:28:34.233Z,22
2018-09-05T01:29:00.367Z,22
2018-09-05T01:29:26.515Z,21.95
2018-09-05T01:29:52.655Z,21.93
2018-09-05T01:30:18.818Z,21.93
2018-09-05T01:30:44.948Z,21.83
2018-09-05T01:31:11.078Z,21.79
2018-09-05T01:31:37.219Z,21.82
2018-09-05T01:32:03.356Z,21.8
2018-09-05T01:32:29.491Z,21.89
2018-09-05T01:32:55.629Z,21.92
2018-09-05T01:33:21.758Z,21.88
2018-09-05T01:33:47.894Z,21.95
2018-09-05T01:34:14.033Z,21.91
2018-09-05T01:34:40.161Z,21.99
2018-09-05T01:35:06.297Z,21.96
2018-09-05T01:35:32.429Z,21.91
2018-09-05T01:35:58.563Z,21.92
2018-09-05T01:36:24.699Z,21.99
2018-09-05T01:36:50.859Z,21.93
2018-09-05T01:37:16.990Z,21.99
2018-09-05T01:37:43.127Z,22.04
2018-09-05T01:38:09.259Z,22.02
2018-09-05T01:38:35.435Z,22.1
2018-09-05T01:39:01.571Z,22
2018-09-05T01:39:27.701Z,21.95
2018-09-05T01:39:53.837Z,21.95
2018-09-05T01:40:19.994Z,22.04
2018-09-05T01:40:46.125Z,22.02
2018-09-05T01:41:12.293Z,22.06
2018-09-05T01:41:38.431Z,22.02
2018-09-05T01:42:04.560Z,21.96
2018-09-05T01:42:30.698Z,22.04
2018-09-05T01:42:56.829Z,21.96
2018-09-05T01:43:22.968Z,21.99
2018-09-05T01:43:49.109Z,21.92
2018-09-05T01:44:15.244Z,21.96
2018-09-05T01:44:41.379Z,21.98
2018-09-05T01:45:07.541Z,22.02
2018-09-05T01:45:33.672Z,21.98
2018-09-05T01:45:59.811Z,22.07
2018-09-05T01:46:25.997Z,22.04
2018-09-05T01:46:52.124Z,22
2018-09-05T01:47:18.261Z,21.99
2018-09-05T01:47:44.401Z,21.99
2018-09-05T01:48:10.536Z,22.06
2018-09-05T01:48:36.671Z,21.92
2018-09-05T01:49:02.807Z,21.93
2018-09-05T01:49:28.959Z,21.91
2018-09-05T01:49:55.091Z,21.95
2018-09-05T01:50:21.232Z,21.95
2018-09-05T01:50:47.360Z,22
2018-09-05T01:51:13.499Z,22
2018-09-05T01:51:39.628Z,22.06
2018-09-05T01:52:05.762Z,21.98
2018-09-05T01:52:31.902Z,22
2018-09-05T01:52:58.090Z,22.04
2018-09-05T01:53:24.238Z,21.96
2018-09-05T01:53:50.396Z,21.98
2018-09-05T01:54:16.529Z,21.92
2018-09-05T01:54:42.668Z,21.88
2018-09-05T01:55:08.811Z,21.83
2018-09-05T01:55:34.989Z,21.79
2018-09-05T01:56:01.122Z,21.8
2018-09-05T01:56:27.261Z,21.85
2018-09-05T01:56:53.393Z,21.83
2018-09-05T01:57:19.525Z,21.83
2018-09-05T01:57:45.668Z,21.8
2018-09-05T01:58:11.799Z,21.75
2018-09-05T01:58:37.937Z,21.82
2018-09-05T01:59:04.078Z,21.76
2018-09-05T01:59:30.211Z,21.61
2018-09-05T01:59:56.350Z,21.73
2018-09-05T02:00:22.485Z,21.66
2018-09-05T02:00:48.617Z,21.64
2018-09-05T02:01:14.753Z,21.75
2018-09-05T02:01:40.885Z,21.79
2018-09-05T02:02:07.026Z,21.76
2018-09-05T02:02:33.160Z,21.7
2018-09-05T02:02:59.289Z,21.79
2018-09-05T02:03:25.432Z,21.66
2018-09-05T02:03:51.590Z,21.66
2018-09-05T02:04:17.725Z,21.67
2018-09-05T02:04:43.888Z,21.73
2018-09-05T02:05:10.019Z,21.77
2018-09-05T02:05:36.165Z,21.8
2018-09-05T02:06:02.303Z,21.82
2018-09-05T02:06:28.440Z,21.72
2018-09-05T02:06:54.574Z,21.73
2018-09-05T02:07:20.729Z,21.76
2018-09-05T02:07:46.882Z,21.76
2018-09-05T02:08:13.047Z,21.75
2018-09-05T02:08:39.251Z,21.61
2018-09-05T02:09:05.388Z,21.7
2018-09-05T02:09:31.569Z,21.7
2018-09-05T02:09:57.701Z,21.64
2018-09-05T02:10:23.832Z,21.58
2018-09-05T02:10:50.001Z,21.58
2018-09-05T02:11:16.132Z,21.54
2018-09-05T02:11:42.269Z,21.52
2018-09-05T02:12:08.397Z,21.55
2018-09-05T02:12:34.555Z,21.57
2018-09-05T02:13:00.689Z,21.55
2018-09-05T02:13:26.813Z,21.54
2018-09-05T02:13:52.959Z,21.55
2018-09-05T02:14:19.089Z,21.52
2018-09-05T02:14:45.229Z,21.55
2018-09-05T02:15:11.362Z,21.57
2018-09-05T02:15:37.494Z,21.55
2018-09-05T02:16:03.628Z,21.55
2018-09-05T02:16:29.761Z,21.52
2018-09-05T02:16:55.894Z,21.48
2018-09-05T02:17:22.048Z,21.51
2018-09-05T02:17:48.189Z,21.52
2018-09-05T02:18:14.328Z,21.43
2018-09-05T02:18:40.510Z,21.37
2018-09-05T02:19:06.643Z,21.43
2018-09-05T02:19:32.776Z,21.42
2018-09-05T02:19:58.919Z,21.37
2018-09-05T02:20:25.051Z,21.37
2018-09-05T02:20:51.181Z,21.35
2018-09-05T02:21:17.321Z,21.32
2018-09-05T02:21:43.478Z,21.37
2018-09-05T02:22:09.612Z,21.37
2018-09-05T02:22:35.742Z,21.39
2018-09-05T02:23:01.877Z,21.43
2018-09-05T02:23:28.010Z,21.46
2018-09-05T02:23:54.148Z,21.4
2018-09-05T02:24:20.286Z,21.42
2018-09-05T02:24:46.421Z,21.43
2018-09-05T02:25:12.559Z,21.3
2018-09-05T02:25:38.715Z,21.35
2018-09-05T02:26:04.844Z,21.32
2018-09-05T02:26:30.987Z,21.27
2018-09-05T02:26:57.153Z,21.29
2018-09-05T02:27:23.276Z,21.35
2018-09-05T02:27:49.408Z,21.45
2018-09-05T02:28:15.547Z,21.4
2018-09-05T02:28:41.680Z,21.39
2018-09-05T02:29:07.820Z,21.42
2018-09-05T02:29:33.960Z,21.46
2018-09-05T02:30:00.095Z,21.42
2018-09-05T02:30:26.230Z,21.42
2018-09-05T02:30:52.365Z,21.39
2018-09-05T02:31:18.498Z,21.36
2018-09-05T02:31:44.662Z,21.37
2018-09-05T02:32:10.802Z,21.39
2018-09-05T02:32:36.953Z,21.39
2018-09-05T02:33:03.096Z,21.36
2018-09-05T02:33:29.223Z,21.37
2018-09-05T02:33:55.400Z,21.4
2018-09-05T02:34:21.538Z,21.36
2018-09-05T02:34:47.688Z,21.45
2018-09-05T02:35:13.818Z,21.29
2018-09-05T02:35:39.951Z,21.32
2018-09-05T02:36:06.083Z,21.37
2018-09-05T02:36:32.243Z,21.36
2018-09-05T02:36:58.424Z,21.45
2018-09-05T02:37:24.564Z,21.4
2018-09-05T02:37:50.728Z,21.35
2018-09-05T02:38:16.876Z,21.36
2018-09-05T02:38:43.029Z,21.4
2018-09-05T02:39:09.165Z,21.48
2018-09-05T02:39:35.327Z,21.48
2018-09-05T02:40:01.530Z,21.48
2018-09-05T02:40:27.722Z,21.45
2018-09-05T02:40:53.971Z,21.45
2018-09-05T02:41:19.966Z,21.4
2018-09-05T02:41:46.122Z,21.4
2018-09-05T02:42:12.255Z,21.39
2018-09-05T02:42:38.435Z,21.4
2018-09-05T02:43:04.571Z,21.27
2018-09-05T02:43:30.699Z,21.35
2018-09-05T02:43:56.842Z,21.32
2018-09-05T02:44:23.005Z,21.43
2018-09-05T02:44:49.154Z,21.43
2018-09-05T02:45:15.292Z,21.29
2018-09-05T02:45:41.427Z,21.3
2018-09-05T02:46:07.559Z,21.3
2018-09-05T02:46:33.692Z,21.3
2018-09-05T02:46:59.827Z,21.27
2018-09-05T02:47:25.965Z,21.3
2018-09-05T02:47:52.107Z,21.3
2018-09-05T02:48:18.238Z,21.33
2018-09-05T02:48:44.392Z,21.29
2018-09-05T02:49:10.525Z,21.25
2018-09-05T02:49:36.683Z,21.3
2018-09-05T02:50:02.814Z,21.33
2018-09-05T02:50:28.972Z,21.35
2018-09-05T02:50:55.132Z,21.32
2018-09-05T02:51:21.292Z,21.29
2018-09-05T02:51:47.425Z,21.21
2018-09-05T02:52:13.559Z,21.29
2018-09-05T02:52:39.715Z,21.32
2018-09-05T02:53:05.847Z,21.27
2018-09-05T02:53:32.010Z,21.25
2018-09-05T02:53:58.149Z,21.21
2018-09-05T02:54:24.293Z,21.18
2018-09-05T02:54:50.448Z,21.2
2018-09-05T02:55:16.606Z,21.17
2018-09-05T02:55:42.744Z,21.22
2018-09-05T02:56:08.896Z,21.09
2018-09-05T02:56:35.030Z,21.15
2018-09-05T02:57:01.159Z,21.09
2018-09-05T02:57:27.326Z,21.17
2018-09-05T02:57:53.479Z,21.12
2018-09-05T02:58:19.612Z,21.18
2018-09-05T02:58:45.767Z,21.12
2018-09-05T02:59:11.907Z,21.09
2018-09-05T02:59:38.036Z,21.07
2018-09-05T03:00:04.175Z,21.09
2018-09-05T03:00:30.307Z,21.09
2018-09-05T03:00:56.464Z,21.22
2018-09-05T03:01:22.600Z,21.09
2018-09-05T03:01:48.736Z,21.11
2018-09-05T03:02:14.890Z,21.11
2018-09-05T03:02:41.047Z,21.12
2018-09-05T03:03:07.184Z,21.14
2018-09-05T03:03:33.321Z,21.11
2018-09-05T03:03:59.479Z,21.09
2018-09-05T03:04:25.608Z,21.07
2018-09-05T03:04:51.748Z,21.09
2018-09-05T03:05:17.889Z,21.17
2018-09-05T03:05:44.024Z,21.09
2018-09-05T03:06:10.198Z,21.17
2018-09-05T03:06:36.412Z,21.09
2018-09-05T03:07:02.544Z,21.17
2018-09-05T03:07:28.682Z,21.15
2018-09-05T03:07:54.827Z,21.09
2018-09-05T03:08:20.953Z,21.14
2018-09-05T03:08:47.087Z,21.09
2018-09-05T03:09:13.284Z,21.11
2018-09-05T03:09:39.394Z,21.12
2018-09-05T03:10:05.576Z,21.07
2018-09-05T03:10:31.708Z,21.12
2018-09-05T03:10:57.865Z,21.07
2018-09-05T03:11:24.010Z,21.05
2018-09-05T03:11:50.208Z,21.12
2018-09-05T03:12:16.339Z,21.15
2018-09-05T03:12:42.482Z,21.15
2018-09-05T03:13:08.629Z,21.07
2018-09-05T03:13:34.799Z,21.09
2018-09-05T03:14:00.962Z,21.12
2018-09-05T03:14:27.121Z,21.09
2018-09-05T03:14:53.257Z,21.09
2018-09-05T03:15:19.441Z,21.12
2018-09-05T03:15:45.579Z,21.06
2018-09-05T03:16:11.730Z,20.92
2018-09-05T03:16:37.894Z,20.95
2018-09-05T03:17:04.031Z,20.9
2018-09-05T03:17:30.189Z,20.95
2018-09-05T03:17:56.323Z,20.88
2018-09-05T03:18:22.468Z,20.95
2018-09-05T03:18:48.616Z,20.99
2018-09-05T03:19:14.760Z,20.95
2018-09-05T03:19:40.899Z,20.95
2018-09-05T03:20:07.060Z,20.87
2018-09-05T03:20:33.220Z,20.88
2018-09-05T03:20:59.381Z,20.82
2018-09-05T03:21:25.565Z,20.97
2018-09-05T03:21:51.705Z,20.9
2018-09-05T03:22:17.832Z,20.87
2018-09-05T03:22:43.970Z,20.85
2018-09-05T03:23:10.100Z,20.9
2018-09-05T03:23:36.271Z,20.84
2018-09-05T03:24:02.387Z,20.82
2018-09-05T03:24:28.515Z,20.84
2018-09-05T03:24:54.648Z,20.82
2018-09-05T03:25:20.814Z,20.87
2018-09-05T03:25:46.973Z,20.81
2018-09-05T03:26:13.129Z,20.87
2018-09-05T03:26:39.261Z,20.85
2018-09-05T03:27:05.401Z,20.88
2018-09-05T03:27:31.584Z,20.92
2018-09-05T03:27:57.717Z,20.87
2018-09-05T03:28:23.897Z,20.87
2018-09-05T03:28:50.031Z,20.88
2018-09-05T03:29:16.191Z,20.95
2018-09-05T03:29:42.344Z,20.88
2018-09-05T03:30:08.504Z,20.87
2018-09-05T03:30:34.660Z,20.92
2018-09-05T03:31:00.792Z,20.85
2018-09-05T03:31:26.969Z,20.9
2018-09-05T03:31:53.106Z,20.92
2018-09-05T03:32:19.353Z,20.88
2018-09-05T03:32:45.464Z,20.95
2018-09-05T03:33:11.602Z,20.77
2018-09-05T03:33:37.694Z,20.78
2018-09-05T03:34:03.828Z,20.7
2018-09-05T03:34:29.991Z,20.78
2018-09-05T03:34:56.146Z,20.74
2018-09-05T03:35:22.307Z,20.78
2018-09-05T03:35:48.444Z,20.67
2018-09-05T03:36:14.575Z,20.78
2018-09-05T03:36:40.733Z,20.75
2018-09-05T03:37:06.879Z,20.8
2018-09-05T03:37:33.059Z,20.74
2018-09-05T03:37:59.213Z,20.7
2018-09-05T03:38:25.351Z,20.77
2018-09-05T03:38:51.502Z,20.63
2018-09-05T03:39:17.688Z,20.7
2018-09-05T03:39:43.815Z,20.67
2018-09-05T03:40:10.021Z,20.65
2018-09-05T03:40:36.178Z,20.67
2018-09-05T03:41:02.314Z,20.69
2018-09-05T03:41:28.451Z,20.67
2018-09-05T03:41:54.598Z,20.66
2018-09-05T03:42:20.727Z,20.72
2018-09-05T03:42:46.862Z,20.7
2018-09-05T03:43:13.015Z,20.7
2018-09-05T03:43:39.154Z,20.81
2018-09-05T03:44:05.301Z,20.7
2018-09-05T03:44:31.452Z,20.78
2018-09-05T03:44:57.602Z,20.8
2018-09-05T03:45:23.731Z,20.77
2018-09-05T03:45:49.862Z,20.78
2018-09-05T03:46:16.040Z,20.66
2018-09-05T03:46:42.174Z,20.7
2018-09-05T03:47:08.333Z,20.67
2018-09-05T03:47:34.467Z,20.66
2018-09-05T03:48:00.598Z,20.63
2018-09-05T03:48:26.737Z,20.65
2018-09-05T03:48:52.890Z,20.69
2018-09-05T03:49:19.029Z,20.69
2018-09-05T03:49:45.211Z,20.8
2018-09-05T03:50:11.299Z,20.78
2018-09-05T03:50:37.456Z,20.66
2018-09-05T03:51:03.592Z,20.7
2018-09-05T03:51:29.723Z,20.66
2018-09-05T03:51:55.864Z,20.67
2018-09-05T03:52:21.992Z,20.69
2018-09-05T03:52:48.129Z,20.8
2018-09-05T03:53:14.289Z,20.75
2018-09-05T03:53:40.451Z,20.74
2018-09-05T03:54:06.585Z,20.72
2018-09-05T03:54:32.801Z,20.7
2018-09-05T03:54:58.883Z,20.65
2018-09-05T03:55:25.020Z,20.66
2018-09-05T03:55:51.157Z,20.67
2018-09-05T03:56:17.295Z,20.67
2018-09-05T03:56:43.437Z,20.65
2018-09-05T03:57:09.593Z,20.69
2018-09-05T03:57:35.716Z,20.62
2018-09-05T03:58:01.855Z,20.69
2018-09-05T03:58:28.036Z,20.67
2018-09-05T03:58:54.200Z,20.67
2018-09-05T03:59:20.338Z,20.74
2018-09-05T03:59:46.474Z,20.7
2018-09-05T04:00:12.676Z,20.72
2018-09-05T04:00:38.811Z,20.66
2018-09-05T04:01:04.952Z,20.65
2018-09-05T04:01:31.085Z,20.69
2018-09-05T04:01:57.247Z,20.7
2018-09-05T04:02:23.380Z,20.66
2018-09-05T04:02:49.565Z,20.7
2018-09-05T04:03:15.707Z,20.58
2018-09-05T04:03:41.866Z,20.63
2018-09-05T04:04:08.029Z,20.65
2018-09-05T04:04:34.167Z,20.59
2018-09-05T04:05:00.382Z,20.63
2018-09-05T04:05:26.475Z,20.6
2018-09-05T04:05:52.611Z,20.62
2018-09-05T04:06:18.739Z,20.59
2018-09-05T04:06:44.875Z,20.59
2018-09-05T04:07:11.010Z,20.62
2018-09-05T04:07:37.157Z,20.62
2018-09-05T04:08:03.294Z,20.58
2018-09-05T04:08:29.475Z,20.59
2018-09-05T04:08:55.617Z,20.63
2018-09-05T04:09:21.752Z,20.65
2018-09-05T04:09:47.904Z,20.62
2018-09-05T04:10:14.059Z,20.66
2018-09-05T04:10:40.224Z,20.58
2018-09-05T04:11:06.353Z,20.58
2018-09-05T04:11:32.481Z,20.63
2018-09-05T04:11:58.642Z,20.56
2018-09-05T04:12:24.781Z,20.58
2018-09-05T04:12:50.905Z,20.67
2018-09-05T04:13:17.042Z,20.59
2018-09-05T04:13:43.200Z,20.62
2018-09-05T04:14:09.339Z,20.59
2018-09-05T04:14:35.470Z,20.41
2018-09-05T04:15:01.605Z,20.58
2018-09-05T04:15:27.786Z,20.43
2018-09-05T04:15:53.919Z,20.59
2018-09-05T04:16:20.057Z,20.56
2018-09-05T04:16:46.188Z,20.43
2018-09-05T04:17:12.330Z,20.48
2018-09-05T04:17:38.480Z,20.51
2018-09-05T04:18:04.623Z,20.43
2018-09-05T04:18:30.760Z,20.44
2018-09-05T04:18:56.888Z,20.4
2018-09-05T04:19:23.074Z,20.51
2018-09-05T04:19:49.233Z,20.47
2018-09-05T04:20:15.394Z,20.39
2018-09-05T04:20:41.523Z,20.36
2018-09-05T04:21:07.659Z,20.4
2018-09-05T04:21:33.840Z,20.44
2018-09-05T04:21:59.997Z,20.36
2018-09-05T04:22:26.131Z,20.4
2018-09-05T04:22:52.311Z,20.36
2018-09-05T04:23:18.450Z,20.44
2018-09-05T04:23:44.591Z,20.43
2018-09-05T04:24:10.773Z,20.47
2018-09-05T04:24:36.903Z,20.47
2018-09-05T04:25:03.092Z,20.48
2018-09-05T04:25:29.249Z,20.43
2018-09-05T04:25:55.384Z,20.4
2018-09-05T04:26:21.521Z,20.4
2018-09-05T04:26:47.654Z,20.41
2018-09-05T04:27:13.793Z,20.43
2018-09-05T04:27:39.926Z,20.47
2018-09-05T04:28:06.062Z,20.44
2018-09-05T04:28:32.194Z,20.41
2018-09-05T04:28:58.331Z,20.4
2018-09-05T04:29:24.506Z,20.4
2018-09-05T04:29:50.663Z,20.39
2018-09-05T04:30:16.794Z,20.41
2018-09-05T04:30:42.971Z,20.44
2018-09-05T04:31:09.128Z,20.41
2018-09-05T04:31:35.265Z,20.39
2018-09-05T04:32:01.421Z,20.5
2018-09-05T04:32:27.560Z,20.44
2018-09-05T04:32:53.690Z,20.48
2018-09-05T04:33:19.835Z,20.48
2018-09-05T04:33:45.993Z,20.4
2018-09-05T04:34:12.129Z,20.44
2018-09-05T04:34:38.267Z,20.4
2018-09-05T04:35:04.428Z,20.47
2018-09-05T04:35:30.590Z,20.31
2018-09-05T04:35:56.741Z,20.41
2018-09-05T04:36:22.907Z,20.43
2018-09-05T04:36:49.068Z,20.43
2018-09-05T04:37:15.205Z,20.44
2018-09-05T04:37:41.359Z,20.37
2018-09-05T04:38:07.493Z,20.41
2018-09-05T04:38:33.629Z,20.29
2018-09-05T04:38:59.778Z,20.31
2018-09-05T04:39:25.934Z,20.43
2018-09-05T04:39:52.055Z,20.41
2018-09-05T04:40:18.187Z,20.34
2018-09-05T04:40:44.347Z,20.36
2018-09-05T04:41:10.505Z,20.37
2018-09-05T04:41:36.663Z,20.31
2018-09-05T04:42:02.802Z,20.28
2018-09-05T04:42:28.955Z,20.24
2018-09-05T04:42:55.092Z,20.24
2018-09-05T04:43:21.257Z,20.29
2018-09-05T04:43:47.410Z,20.31
2018-09-05T04:44:13.550Z,20.29
2018-09-05T04:44:39.688Z,20.31
2018-09-05T04:45:05.886Z,20.25
2018-09-05T04:45:31.961Z,20.31
2018-09-05T04:45:58.101Z,20.32
2018-09-05T04:46:24.237Z,20.39
2018-09-05T04:46:50.368Z,20.32
2018-09-05T04:47:16.531Z,20.44
2018-09-05T04:47:42.683Z,20.31
2018-09-05T04:48:08.819Z,20.41
2018-09-05T04:48:34.950Z,20.4
2018-09-05T04:49:01.109Z,20.4
2018-09-05T04:49:27.248Z,20.51
2018-09-05T04:49:53.384Z,20.51
2018-09-05T04:50:19.545Z,20.47
2018-09-05T04:50:45.712Z,20.5
2018-09-05T04:51:11.848Z,20.58
2018-09-05T04:51:38.009Z,20.43
2018-09-05T04:52:04.190Z,20.51
2018-09-05T04:52:30.348Z,20.48
2018-09-05T04:52:56.452Z,20.5
2018-09-05T04:53:22.642Z,20.43
2018-09-05T04:53:48.779Z,20.41
2018-09-05T04:54:14.912Z,20.52
2018-09-05T04:54:41.046Z,20.43
2018-09-05T04:55:07.202Z,20.55
2018-09-05T04:55:33.340Z,20.63
2018-09-05T04:55:59.503Z,20.59
2018-09-05T04:56:25.657Z,20.65
2018-09-05T04:56:51.810Z,20.59
2018-09-05T04:57:17.967Z,20.65
2018-09-05T04:57:44.094Z,20.63
2018-09-05T04:58:10.229Z,20.6
2018-09-05T04:58:36.357Z,20.58
2018-09-05T04:59:02.496Z,20.63
2018-09-05T04:59:28.679Z,20.59
2018-09-05T04:59:54.811Z,20.62
2018-09-05T05:00:20.944Z,20.59
2018-09-05T05:00:47.078Z,20.58
2018-09-05T05:01:13.212Z,20.66
2018-09-05T05:01:39.390Z,20.65
2018-09-05T05:02:05.530Z,20.62
2018-09-05T05:02:31.665Z,20.67
2018-09-05T05:02:57.798Z,20.67
2018-09-05T05:03:23.933Z,20.63
2018-09-05T05:03:50.097Z,20.66
2018-09-05T05:04:16.228Z,20.7
2018-09-05T05:04:42.357Z,20.65
2018-09-05T05:05:08.497Z,20.66
2018-09-05T05:05:34.710Z,20.63
2018-09-05T05:06:00.836Z,20.74
2018-09-05T05:06:27.008Z,20.74
2018-09-05T05:06:53.140Z,20.77
2018-09-05T05:07:19.296Z,20.8
2018-09-05T05:07:45.428Z,20.78
2018-09-05T05:08:11.587Z,20.69
2018-09-05T05:08:37.714Z,20.7
2018-09-05T05:09:03.901Z,20.75
2018-09-05T05:09:30.061Z,20.77
2018-09-05T05:09:56.190Z,20.7
2018-09-05T05:10:22.349Z,20.8
2018-09-05T05:10:48.507Z,20.66
2018-09-05T05:11:14.638Z,20.74
2018-09-05T05:11:40.828Z,20.74
2018-09-05T05:12:06.978Z,20.75
2018-09-05T05:12:33.134Z,20.81
2018-09-05T05:12:59.266Z,20.75
2018-09-05T05:13:25.441Z,20.7
2018-09-05T05:13:51.583Z,20.69
2018-09-05T05:14:17.714Z,20.67
2018-09-05T05:14:43.845Z,20.65
2018-09-05T05:15:09.979Z,20.72
2018-09-05T05:15:36.116Z,20.67
2018-09-05T05:16:02.262Z,20.67
2018-09-05T05:16:28.419Z,20.66
2018-09-05T05:16:54.562Z,20.66
2018-09-05T05:17:20.725Z,20.66
2018-09-05T05:17:46.865Z,20.63
2018-09-05T05:18:13.080Z,20.69
2018-09-05T05:18:39.208Z,20.58
2018-09-05T05:19:05.369Z,20.65
2018-09-05T05:19:31.500Z,20.63
2018-09-05T05:19:57.656Z,20.67
2018-09-05T05:20:23.796Z,20.58
2018-09-05T05:20:49.952Z,20.62
2018-09-05T05:21:16.086Z,20.67
2018-09-05T05:21:42.270Z,20.67
2018-09-05T05:22:08.436Z,20.72
2018-09-05T05:22:34.616Z,20.66
2018-09-05T05:23:00.778Z,20.65
2018-09-05T05:23:26.930Z,20.7
2018-09-05T05:23:53.080Z,20.8
2018-09-05T05:24:19.218Z,20.78
2018-09-05T05:24:45.356Z,20.69
2018-09-05T05:25:11.513Z,20.67
2018-09-05T05:25:37.651Z,20.75
2018-09-05T05:26:03.787Z,20.69
2018-09-05T05:26:29.949Z,20.69
2018-09-05T05:26:56.081Z,20.75
2018-09-05T05:27:22.222Z,20.75
2018-09-05T05:27:48.374Z,20.74
2018-09-05T05:28:14.501Z,20.8
2018-09-05T05:28:40.664Z,20.75
2018-09-05T05:29:06.797Z,20.77
2018-09-05T05:29:32.958Z,20.69
2018-09-05T05:29:59.088Z,20.69
2018-09-05T05:30:25.249Z,20.7
2018-09-05T05:30:51.384Z,20.74
2018-09-05T05:31:17.522Z,20.8
2018-09-05T05:31:43.660Z,20.74
2018-09-05T05:32:09.816Z,20.72
2018-09-05T05:32:36.060Z,20.78
2018-09-05T05:33:02.094Z,20.67
2018-09-05T05:33:28.224Z,20.67
2018-09-05T05:33:54.385Z,20.66
2018-09-05T05:34:20.534Z,20.66
2018-09-05T05:34:46.673Z,20.59
2018-09-05T05:35:12.837Z,20.65
2018-09-05T05:35:39.001Z,20.62
2018-09-05T05:36:05.136Z,20.58
2018-09-05T05:36:31.272Z,20.66
2018-09-05T05:36:57.431Z,20.62
2018-09-05T05:37:23.566Z,20.63
2018-09-05T05:37:49.695Z,20.65
2018-09-05T05:38:15.875Z,20.65
2018-09-05T05:38:42.038Z,20.58